Time;durP1;ratioP1;P1;durP2;ratioP2;P2;SDS_P1;SDS_P2;PMS_P1;PMS_P2;Temp;Humidity;BMP_temperature;BMP_pressure;BME280_temperature;BME280_humidity;BME280_pressure;Samples;Min_cycle;Max_cycle;Signal;HPM_P1;HPM_P2
2023/01/18 00:03:12;;;;;;;83.30;34.77;;;-3.30;99.90;;;;;;8322391;28;20189;-63
2023/01/18 00:07:12;;;;;;;99.73;41.23;;;-3.30;99.90;;;;;;8325123;28;20186;-64
2023/01/18 00:11:15;;;;;;;128.03;55.40;;;-3.20;99.90;;;;;;8330754;28;20221;-65
2023/01/18 00:15:16;;;;;;;117.87;51.03;;;-3.10;99.90;;;;;;8328876;28;20372;-65
2023/01/18 00:19:17;;;;;;;146.80;60.23;;;-3.10;99.90;;;;;;8330608;28;20186;-65
2023/01/18 00:23:18;;;;;;;155.40;63.13;;;-3.10;99.90;;;;;;8336059;28;20220;-64
2023/01/18 00:27:20;;;;;;;142.43;60.20;;;-3.10;99.90;;;;;;8332556;28;20190;-63
2023/01/18 00:31:20;;;;;;;106.47;50.93;;;-3.10;99.90;;;;;;8333352;28;20289;-64
2023/01/18 00:35:21;;;;;;;113.87;50.40;;;-3.10;99.90;;;;;;8335381;28;20252;-63
2023/01/18 00:39:22;;;;;;;97.17;45.63;;;-3.10;99.90;;;;;;8336202;28;20221;-65
2023/01/18 00:43:38;;;;;;;103.80;43.20;;;-3.10;99.90;;;;;;8332447;28;20186;-64
2023/01/18 00:47:39;;;;;;;92.13;45.83;;;-3.10;99.90;;;;;;8335497;28;20192;-64
2023/01/18 00:51:40;;;;;;;97.27;45.43;;;-3.10;99.90;;;;;;8325753;28;20214;-65
2023/01/18 00:55:41;;;;;;;94.97;45.37;;;-3.10;99.90;;;;;;8339979;28;20186;-64
2023/01/18 00:59:41;;;;;;;84.43;41.10;;;-3.10;99.90;;;;;;8339940;28;20186;-65
2023/01/18 01:08:03;;;;;;;84.70;39.57;;;-3.10;99.90;;;;;;8331591;28;20197;-63
2023/01/18 01:29:21;;;;;;;64.10;29.00;;;-2.90;99.90;;;;;;8330960;28;20355;-64
2023/01/18 01:33:21;;;;;;;58.17;29.30;;;-2.80;99.90;;;;;;8340850;28;20174;-65
2023/01/18 01:37:22;;;;;;;54.17;29.27;;;-2.80;99.90;;;;;;8334351;28;20220;-64
2023/01/18 01:41:29;;;;;;;61.07;29.87;;;-2.70;99.90;;;;;;8328770;28;20190;-65
2023/01/18 01:45:30;;;;;;;56.33;28.33;;;-2.70;99.90;;;;;;8329520;28;20183;-65
2023/01/18 01:49:40;;;;;;;60.20;29.30;;;-2.70;99.90;;;;;;8332569;28;20202;-64
2023/01/18 01:53:41;;;;;;;57.40;30.70;;;-2.60;99.90;;;;;;8338985;28;20180;-65
2023/01/18 01:58:03;;;;;;;64.77;29.97;;;-2.50;99.90;;;;;;8333316;28;20197;-63
2023/01/18 02:02:05;;;;;;;60.93;30.37;;;-2.50;99.90;;;;;;8346354;28;20201;-66
2023/01/18 02:06:22;;;;;;;54.07;28.03;;;-2.40;99.90;;;;;;8332266;28;20182;-64
2023/01/18 02:10:23;;;;;;;56.13;25.43;;;-2.40;99.90;;;;;;8326583;28;20224;-65
2023/01/18 02:14:26;;;;;;;44.10;22.87;;;-2.40;99.90;;;;;;8334710;28;20170;-64
2023/01/18 02:18:34;;;;;;;43.83;22.90;;;-2.30;99.90;;;;;;8329586;28;20190;-64
2023/01/18 02:22:50;;;;;;;46.37;22.93;;;-2.30;99.90;;;;;;8329072;28;20186;-64
2023/01/18 02:26:51;;;;;;;42.80;21.87;;;-2.30;99.90;;;;;;8327823;28;20253;-64
2023/01/18 02:31:09;;;;;;;47.77;23.90;;;-2.20;99.90;;;;;;8336344;28;20220;-64
2023/01/18 02:35:32;;;;;;;46.63;22.40;;;-2.20;99.90;;;;;;8326531;28;20428;-64
2023/01/18 02:39:41;;;;;;;42.07;21.83;;;-2.20;99.90;;;;;;8325949;28;20290;-66
2023/01/18 02:48:04;;;;;;;36.10;19.70;;;-2.20;99.90;;;;;;8334946;28;20445;-64
2023/01/18 02:52:06;;;;;;;38.37;20.87;;;-2.20;99.90;;;;;;8326952;28;20198;-64
2023/01/18 02:56:12;;;;;;;38.23;20.30;;;-2.20;99.90;;;;;;8331106;28;20185;-64
2023/01/18 03:00:17;;;;;;;39.83;20.43;;;-2.20;99.90;;;;;;8326107;28;20190;-64
2023/01/18 03:04:27;;;;;;;41.53;20.37;;;-2.20;99.90;;;;;;8328272;28;20194;-65
2023/01/18 03:08:46;;;;;;;37.97;19.87;;;-2.20;99.90;;;;;;8328205;28;20323;-65
2023/01/18 03:13:00;;;;;;;36.70;19.47;;;-2.20;99.90;;;;;;8331861;28;20186;-64
2023/01/18 03:17:10;;;;;;;42.87;21.90;;;-2.20;99.90;;;;;;8329387;28;20289;-64
2023/01/18 03:21:11;;;;;;;39.23;21.43;;;-2.20;99.90;;;;;;8334054;28;20195;-65
2023/01/18 03:25:16;;;;;;;37.07;18.77;;;-2.20;99.90;;;;;;8328822;28;20524;-64
2023/01/18 03:33:44;;;;;;;33.90;18.37;;;-2.20;99.90;;;;;;8332675;28;20184;-65
2023/01/18 03:37:47;;;;;;;35.07;19.13;;;-2.20;99.90;;;;;;8327497;28;20283;-65
2023/01/18 03:41:52;;;;;;;40.43;20.23;;;-2.10;99.90;;;;;;8331027;28;20450;-64
2023/01/18 03:45:55;;;;;;;44.40;20.13;;;-2.10;99.90;;;;;;8331214;28;20193;-64
2023/01/18 03:49:56;;;;;;;43.27;22.77;;;-2.10;99.90;;;;;;8325795;28;20255;-65
2023/01/18 03:54:09;;;;;;;39.40;20.97;;;-2.10;99.90;;;;;;8334182;28;20189;-65
2023/01/18 03:58:13;;;;;;;39.33;22.57;;;-2.10;99.90;;;;;;8320271;28;20185;-65
2023/01/18 04:02:16;;;;;;;38.43;20.57;;;-2.10;99.90;;;;;;8331870;28;20195;-65
2023/01/18 04:06:21;;;;;;;40.10;20.70;;;-2.10;99.90;;;;;;8332698;28;20244;-65
2023/01/18 04:10:22;;;;;;;42.60;21.87;;;-2.00;99.90;;;;;;8335449;28;20222;-64
2023/01/18 04:14:23;;;;;;;45.23;23.83;;;-2.00;99.90;;;;;;8331274;28;20189;-65
2023/01/18 04:18:24;;;;;;;48.13;23.53;;;-2.00;99.90;;;;;;8332289;28;20185;-65
2023/01/18 04:22:25;;;;;;;52.73;26.37;;;-1.90;99.90;;;;;;8333703;28;20280;-65
2023/01/18 04:26:26;;;;;;;56.20;28.23;;;-1.80;99.90;;;;;;8338976;28;20190;-64
2023/01/18 04:30:27;;;;;;;51.23;27.47;;;-1.80;99.90;;;;;;8330920;28;20211;-65
2023/01/18 04:34:27;;;;;;;49.87;25.33;;;-1.80;99.90;;;;;;8338424;28;20210;-65
2023/01/18 04:38:28;;;;;;;47.23;24.03;;;-1.70;99.90;;;;;;8332330;28;20556;-64
2023/01/18 04:42:29;;;;;;;44.30;23.17;;;-1.70;99.90;;;;;;8337646;28;20253;-66
2023/01/18 04:46:30;;;;;;;40.27;21.57;;;-1.70;99.90;;;;;;8336034;28;20223;-66
2023/01/18 04:50:31;;;;;;;35.23;20.00;;;-1.70;99.90;;;;;;8337124;28;20217;-64
2023/01/18 04:54:32;;;;;;;37.90;20.03;;;-1.70;99.90;;;;;;8330669;28;20286;-65
2023/01/18 04:58:32;;;;;;;37.50;19.53;;;-1.60;99.90;;;;;;8331655;28;20221;-66
2023/01/18 05:02:33;;;;;;;37.30;19.23;;;-1.60;99.90;;;;;;8347732;28;20205;-65
2023/01/18 05:06:34;;;;;;;35.20;19.13;;;-1.50;99.90;;;;;;8332054;28;20225;-66
2023/01/18 05:10:35;;;;;;;41.17;21.73;;;-1.50;99.90;;;;;;8327297;28;20269;-66
2023/01/18 05:14:36;;;;;;;39.77;19.23;;;-1.40;99.90;;;;;;8329412;28;20187;-65
2023/01/18 05:18:36;;;;;;;36.90;19.37;;;-1.40;99.90;;;;;;8331044;28;20235;-65
2023/01/18 05:22:37;;;;;;;36.30;19.67;;;-1.30;99.90;;;;;;8332484;28;20214;-66
2023/01/18 05:26:38;;;;;;;38.93;20.20;;;-1.30;99.90;;;;;;8331668;28;20199;-64
2023/01/18 05:30:41;;;;;;;39.57;21.13;;;-1.30;99.90;;;;;;8339659;28;20289;-65
2023/01/18 05:34:42;;;;;;;33.73;18.50;;;-1.20;99.90;;;;;;8330876;28;20209;-66
2023/01/18 05:38:43;;;;;;;39.90;23.13;;;-1.20;99.90;;;;;;8332245;28;20208;-65
2023/01/18 05:42:44;;;;;;;72.27;34.53;;;-1.20;99.90;;;;;;8330571;28;20192;-65
2023/01/18 05:46:45;;;;;;;74.83;37.87;;;-1.20;99.90;;;;;;8332135;28;20207;-65
2023/01/18 05:50:47;;;;;;;75.07;38.87;;;-1.20;99.90;;;;;;8328178;28;20224;-64
2023/01/18 05:54:48;;;;;;;66.70;34.37;;;-1.10;99.90;;;;;;8335750;28;20186;-65
2023/01/18 05:58:49;;;;;;;65.80;34.10;;;-1.10;99.90;;;;;;8328751;28;20196;-65
2023/01/18 06:02:51;;;;;;;80.87;40.63;;;-1.10;99.90;;;;;;8328717;28;20346;-65
2023/01/18 06:06:52;;;;;;;81.23;38.60;;;-1.10;99.90;;;;;;8338028;28;20252;-66
2023/01/18 06:10:53;;;;;;;63.70;32.77;;;-1.10;99.90;;;;;;8331293;28;20212;-64
2023/01/18 06:14:54;;;;;;;55.47;27.67;;;-1.10;99.90;;;;;;8329825;28;20268;-65
2023/01/18 06:18:55;;;;;;;48.83;26.57;;;-1.00;99.90;;;;;;8332063;28;20198;-65
2023/01/18 06:22:56;;;;;;;52.67;24.50;;;-1.10;99.90;;;;;;8332678;28;20657;-66
2023/01/18 06:26:59;;;;;;;42.87;23.57;;;-1.00;99.90;;;;;;8335335;28;20202;-65
2023/01/18 06:31:03;;;;;;;45.47;23.17;;;-1.00;99.90;;;;;;8332669;28;20313;-65
2023/01/18 06:35:04;;;;;;;48.17;23.20;;;-1.00;99.90;;;;;;8333708;28;20213;-65
2023/01/18 06:39:06;;;;;;;36.53;20.97;;;-1.00;99.90;;;;;;8331058;28;20202;-65
2023/01/18 06:43:09;;;;;;;33.80;18.57;;;-1.00;99.90;;;;;;8331946;28;20209;-66
2023/01/18 06:47:09;;;;;;;31.20;17.43;;;-1.10;99.90;;;;;;8331989;28;20221;-67
2023/01/18 06:51:11;;;;;;;32.77;18.10;;;-1.00;99.90;;;;;;8336557;28;20227;-67
2023/01/18 06:55:13;;;;;;;33.53;19.37;;;-1.00;99.90;;;;;;8331081;28;20196;-67
2023/01/18 06:59:14;;;;;;;25.53;15.87;;;-0.90;99.90;;;;;;8326483;28;20230;-67
2023/01/18 07:03:15;;;;;;;30.80;17.57;;;-0.90;99.90;;;;;;8329898;28;20193;-69
2023/01/18 07:07:16;;;;;;;33.40;17.90;;;-0.90;99.90;;;;;;8330774;28;20200;-69
2023/01/18 07:11:17;;;;;;;23.33;13.93;;;-0.80;99.90;;;;;;8333787;28;20206;-68
2023/01/18 07:15:18;;;;;;;26.20;13.17;;;-0.70;99.90;;;;;;8332062;28;20181;-68
2023/01/18 07:19:19;;;;;;;23.77;13.90;;;-0.60;99.90;;;;;;8330713;28;20208;-69
2023/01/18 07:23:20;;;;;;;26.73;15.23;;;-0.60;99.90;;;;;;8330810;28;20192;-69
2023/01/18 07:27:21;;;;;;;19.27;12.10;;;-0.50;99.90;;;;;;8335574;28;20194;-69
2023/01/18 07:31:26;;;;;;;22.60;11.83;;;-0.40;99.90;;;;;;8330520;28;20218;-69
2023/01/18 07:35:27;;;;;;;17.57;11.00;;;-0.40;99.90;;;;;;8344415;28;20337;-69
2023/01/18 07:39:27;;;;;;;21.43;11.10;;;-0.30;99.90;;;;;;8330615;28;20225;-69
2023/01/18 07:43:30;;;;;;;25.47;12.30;;;-0.30;99.90;;;;;;8326411;28;20200;-69
2023/01/18 07:47:30;;;;;;;21.73;11.97;;;-0.30;99.90;;;;;;8333262;28;20201;-70
2023/01/18 07:51:32;;;;;;;24.37;13.43;;;-0.30;99.90;;;;;;8333180;28;20209;-70
2023/01/18 07:55:34;;;;;;;25.27;13.43;;;-0.20;99.90;;;;;;8328224;28;20259;-69
2023/01/18 07:59:35;;;;;;;17.27;10.13;;;-0.20;99.90;;;;;;8325224;28;20190;-69
2023/01/18 08:03:36;;;;;;;21.83;11.90;;;-0.10;99.90;;;;;;8327055;28;20490;-69
2023/01/18 08:07:37;;;;;;;17.33;10.53;;;-0.10;99.90;;;;;;8325008;28;20190;-70
2023/01/18 08:11:37;;;;;;;21.13;13.17;;;0.00;99.90;;;;;;8330517;28;20221;-70
2023/01/18 08:15:39;;;;;;;48.83;26.00;;;0.00;99.90;;;;;;8325849;28;20189;-69
2023/01/18 08:19:40;;;;;;;46.00;25.90;;;0.10;99.90;;;;;;8335685;28;20198;-70
2023/01/18 08:23:41;;;;;;;46.80;25.17;;;0.20;99.90;;;;;;8331808;28;20189;-69
2023/01/18 08:27:42;;;;;;;37.23;22.77;;;0.20;99.90;;;;;;8327374;28;20220;-69
2023/01/18 08:31:42;;;;;;;30.83;18.73;;;0.30;99.90;;;;;;8331541;28;20701;-71
2023/01/18 08:35:46;;;;;;;25.27;15.40;;;0.20;99.90;;;;;;8329024;28;20209;-69
2023/01/18 08:39:47;;;;;;;23.80;13.73;;;0.30;99.90;;;;;;8327805;28;20272;-69
2023/01/18 08:43:49;;;;;;;27.87;17.37;;;0.40;99.90;;;;;;8326332;28;20209;-69
2023/01/18 08:48:02;;;;;;;27.03;18.30;;;0.40;99.90;;;;;;8331269;28;20406;-69
2023/01/18 08:52:03;;;;;;;29.70;18.03;;;0.40;99.90;;;;;;8336682;28;20213;-69
2023/01/18 08:56:05;;;;;;;35.67;20.83;;;0.50;99.90;;;;;;8338044;28;20261;-69
2023/01/18 09:00:08;;;;;;;37.90;20.47;;;0.50;99.90;;;;;;8330869;28;20202;-69
2023/01/18 09:04:09;;;;;;;38.77;22.13;;;0.50;99.90;;;;;;8340438;28;20189;-69
2023/01/18 09:08:10;;;;;;;37.83;19.90;;;0.50;99.90;;;;;;8333268;28;20190;-69
2023/01/18 09:12:11;;;;;;;31.60;18.67;;;0.50;99.90;;;;;;8338816;28;20266;-69
2023/01/18 09:16:13;;;;;;;32.70;18.73;;;0.60;99.90;;;;;;8328237;28;20183;-69
2023/01/18 09:20:13;;;;;;;29.63;18.13;;;0.80;99.90;;;;;;8339445;28;20198;-69
2023/01/18 09:24:14;;;;;;;45.93;22.17;;;0.90;99.90;;;;;;8335704;28;20212;-69
2023/01/18 09:28:16;;;;;;;68.30;32.77;;;1.00;99.90;;;;;;8336670;28;20209;-69
2023/01/18 09:32:18;;;;;;;63.77;30.93;;;1.20;99.90;;;;;;8340234;28;20244;-69
2023/01/18 09:36:24;;;;;;;58.93;29.93;;;1.40;99.90;;;;;;8333968;28;20240;-69
2023/01/18 09:40:45;;;;;;;60.93;31.77;;;1.60;99.90;;;;;;8340569;28;20212;-69
2023/01/18 09:44:51;;;;;;;86.43;39.80;;;1.80;99.90;;;;;;8332574;28;20209;-69
2023/01/18 09:48:55;;;;;;;83.53;44.90;;;2.00;99.90;;;;;;8331849;28;20265;-70
2023/01/18 09:53:11;;;;;;;74.27;38.03;;;2.30;99.90;;;;;;8337528;28;20233;-70
2023/01/18 09:57:28;;;;;;;43.60;26.80;;;2.40;99.90;;;;;;8329492;28;20228;-69
2023/01/18 10:01:32;;;;;;;49.00;27.40;;;2.50;99.90;;;;;;8336873;28;20197;-70
2023/01/18 10:05:43;;;;;;;84.33;40.10;;;2.70;99.90;;;;;;8333195;28;20197;-70
2023/01/18 10:09:51;;;;;;;43.77;26.70;;;2.80;99.90;;;;;;8328886;28;20585;-70
2023/01/18 10:14:02;;;;;;;54.20;30.17;;;2.90;99.90;;;;;;8331959;28;20191;-70
2023/01/18 10:18:03;;;;;;;36.70;21.17;;;3.00;1.00;;;;;;8326380;28;20186;-69
2023/01/18 10:22:12;;;;;;;37.80;21.83;;;2.90;1.00;;;;;;8323702;28;20282;-69
2023/01/18 10:26:25;;;;;;;38.73;22.17;;;2.90;1.00;;;;;;8334856;28;20198;-69
2023/01/18 10:30:40;;;;;;;41.97;25.50;;;2.80;27.80;;;;;;8327976;28;20219;-70
2023/01/18 10:34:46;;;;;;;49.53;29.83;;;3.10;1.00;;;;;;8328768;28;20214;-68
2023/01/18 10:38:50;;;;;;;58.07;31.57;;;3.30;99.90;;;;;;8329638;28;20234;-68
2023/01/18 10:42:55;;;;;;;73.80;38.60;;;3.50;99.90;;;;;;8329429;28;20199;-67
2023/01/18 10:46:58;;;;;;;75.77;39.80;;;3.60;99.90;;;;;;8330708;28;20214;-66
2023/01/18 10:51:01;;;;;;;53.83;31.57;;;3.70;99.90;;;;;;8331253;28;20221;-66
2023/01/18 10:55:08;;;;;;;67.47;37.57;;;3.70;94.20;;;;;;8329909;28;20194;-67
2023/01/18 10:59:24;;;;;;;46.47;29.07;;;3.70;99.90;;;;;;8344080;28;20205;-67
2023/01/18 11:03:27;;;;;;;79.33;44.17;;;3.60;99.90;;;;;;8352746;28;20182;-67
2023/01/18 11:07:29;;;;;;;55.67;33.67;;;3.60;99.90;;;;;;8353268;28;20184;-66
2023/01/18 11:16:04;;;;;;;42.03;27.30;;;3.60;99.90;;;;;;8333370;28;20250;-68
2023/01/18 11:20:06;;;;;;;46.50;30.13;;;3.40;99.90;;;;;;8335990;28;20224;-68
2023/01/18 11:24:13;;;;;;;57.30;34.53;;;3.30;99.90;;;;;;8339312;28;20197;-67
2023/01/18 11:28:19;;;;;;;62.80;32.37;;;3.40;99.90;;;;;;8334694;28;20189;-67
2023/01/18 11:32:29;;;;;;;43.33;26.97;;;3.40;99.90;;;;;;8331657;28;20215;-67
2023/01/18 11:36:44;;;;;;;38.80;25.63;;;3.40;99.90;;;;;;8328717;28;20198;-68
2023/01/18 11:40:45;;;;;;;33.97;21.77;;;3.10;1.00;;;;;;8332421;28;20206;-67
2023/01/18 11:44:51;;;;;;;33.07;21.63;;;3.00;1.00;;;;;;8334471;28;20273;-67
2023/01/18 11:49:05;;;;;;;36.17;22.13;;;2.60;99.90;;;;;;8328525;28;20226;-67
2023/01/18 11:53:40;;;;;;;36.23;22.67;;;2.30;99.90;;;;;;8324648;28;20182;-67
2023/01/18 11:57:41;;;;;;;44.77;27.07;;;2.10;1.00;;;;;;8327816;28;20210;-67
2023/01/18 12:01:56;;;;;;;55.00;33.07;;;2.10;99.90;;;;;;8329330;28;20194;-68
2023/01/18 12:06:05;;;;;;;58.00;33.80;;;2.20;23.10;;;;;;8342456;28;20190;-68
2023/01/18 12:10:14;;;;;;;74.13;42.83;;;2.20;99.90;;;;;;8324488;28;20241;-67
2023/01/18 12:14:36;;;;;;;47.03;26.73;;;2.30;99.90;;;;;;8327778;28;20268;-67
2023/01/18 12:18:49;;;;;;;55.13;33.70;;;2.20;1.00;;;;;;8326665;28;20181;-67
2023/01/18 12:23:08;;;;;;;52.37;29.50;;;2.20;1.00;;;;;;8328250;28;20260;-67
2023/01/18 12:27:38;;;;;;;58.57;34.03;;;2.30;1.00;;;;;;8330448;28;20217;-67
2023/01/18 12:32:04;;;;;;;65.50;35.97;;;2.30;99.90;;;;;;8338670;28;20268;-67
2023/01/18 12:36:51;;;;;;;55.27;30.53;;;2.30;99.90;;;;;;8335278;28;20279;-67
2023/01/18 12:40:55;;;;;;;55.07;31.30;;;2.30;1.00;;;;;;8322215;28;20213;-68
2023/01/18 12:45:16;;;;;;;60.63;34.13;;;2.30;1.00;;;;;;8331141;28;20243;-67
2023/01/18 12:49:20;;;;;;;47.47;26.90;;;2.30;99.90;;;;;;8320998;28;20222;-68
2023/01/18 12:53:40;;;;;;;42.90;24.87;;;2.30;47.70;;;;;;8333499;28;20240;-68
2023/01/18 12:57:41;;;;;;;60.10;32.50;;;2.30;1.00;;;;;;8338969;28;20186;-67
2023/01/18 13:01:50;;;;;;;54.47;30.03;;;2.20;1.00;;;;;;8337237;28;20186;-68
2023/01/18 13:05:59;;;;;;;68.07;38.23;;;2.20;1.00;;;;;;8330550;28;20182;-67
2023/01/18 13:10:01;;;;;;;65.83;34.47;;;2.10;7.80;;;;;;8329221;28;20222;-67
2023/01/18 13:14:17;;;;;;;64.20;34.93;;;2.10;99.90;;;;;;8333080;28;20185;-68
2023/01/18 13:18:25;;;;;;;61.07;34.13;;;2.10;99.90;;;;;;8331432;28;20186;-67
2023/01/18 13:22:30;;;;;;;52.57;31.17;;;2.00;99.90;;;;;;8329387;28;20269;-68
2023/01/18 13:26:33;;;;;;;49.23;29.63;;;2.00;1.00;;;;;;8331777;28;20182;-67
2023/01/18 13:30:45;;;;;;;56.20;32.93;;;2.00;99.90;;;;;;8332940;28;21475;-68
2023/01/18 13:35:12;;;;;;;60.07;33.00;;;2.00;1.00;;;;;;8332091;28;20198;-68
2023/01/18 13:39:17;;;;;;;67.30;36.83;;;2.00;99.90;;;;;;8329026;28;20297;-67
2023/01/18 13:43:31;;;;;;;64.90;33.90;;;1.90;99.90;;;;;;8329385;28;20190;-67
2023/01/18 13:47:38;;;;;;;61.40;35.13;;;1.90;1.00;;;;;;8330554;28;20182;-67
2023/01/18 13:51:38;;;;;;;72.07;36.53;;;1.90;99.90;;;;;;8335472;28;20237;-69
2023/01/18 13:55:59;;;;;;;71.37;38.47;;;1.90;1.00;;;;;;8332822;28;20185;-67
2023/01/18 14:00:01;;;;;;;62.30;34.50;;;1.90;1.00;;;;;;8331510;28;20197;-67
2023/01/18 14:04:29;;;;;;;68.43;37.17;;;2.00;1.00;;;;;;8334292;28;20222;-67
2023/01/18 14:08:33;;;;;;;80.33;44.10;;;2.00;1.00;;;;;;8327644;28;20202;-68
2023/01/18 14:12:49;;;;;;;65.97;37.43;;;1.90;99.90;;;;;;8330024;28;20249;-67
2023/01/18 14:16:55;;;;;;;69.43;38.80;;;1.90;14.70;;;;;;8326177;28;20646;-68
2023/01/18 14:20:58;;;;;;;72.80;38.37;;;1.80;99.90;;;;;;8330906;28;20274;-67
2023/01/18 14:25:21;;;;;;;68.13;36.57;;;1.70;1.00;;;;;;8330552;28;20195;-67
2023/01/18 14:29:35;;;;;;;54.97;33.47;;;1.70;99.90;;;;;;8334217;28;20239;-67
2023/01/18 14:33:41;;;;;;;66.77;36.47;;;1.70;51.00;;;;;;8326947;28;20181;-68
2023/01/18 14:37:42;;;;;;;60.33;35.37;;;1.70;99.90;;;;;;8332032;28;20220;-68
2023/01/18 14:42:03;;;;;;;68.77;39.20;;;1.70;99.90;;;;;;8332545;28;20309;-68
2023/01/18 14:46:15;;;;;;;70.73;38.03;;;1.60;1.00;;;;;;8331291;28;20192;-68
2023/01/18 14:50:21;;;;;;;65.97;36.47;;;1.60;99.90;;;;;;8331003;28;20309;-68
2023/01/18 14:54:24;;;;;;;58.23;32.30;;;1.50;99.90;;;;;;8332995;28;20192;-68
2023/01/18 14:58:26;;;;;;;49.10;27.93;;;1.50;99.90;;;;;;8330694;28;20467;-68
2023/01/18 15:02:35;;;;;;;44.53;26.03;;;1.50;99.80;;;;;;8333185;28;20198;-68
2023/01/18 15:06:44;;;;;;;44.63;24.90;;;1.50;87.70;;;;;;8316604;28;20196;-68
2023/01/18 15:10:45;;;;;;;44.13;25.13;;;1.50;64.10;;;;;;8331571;28;20293;-68
2023/01/18 15:14:48;;;;;;;46.10;26.03;;;1.50;28.20;;;;;;8332122;28;20193;-68
2023/01/18 15:18:51;;;;;;;44.70;25.20;;;1.40;1.00;;;;;;8328896;28;20576;-68
2023/01/18 15:22:53;;;;;;;40.17;22.63;;;1.40;1.00;;;;;;8327617;28;20181;-68
2023/01/18 15:26:56;;;;;;;43.70;24.40;;;1.40;1.00;;;;;;8328349;28;20179;-68
2023/01/18 15:30:57;;;;;;;40.57;23.77;;;1.40;1.00;;;;;;8329987;28;20231;-68
2023/01/18 15:34:59;;;;;;;40.30;23.13;;;1.40;1.00;;;;;;8331503;28;20510;-68
2023/01/18 15:39:00;;;;;;;48.53;27.57;;;1.40;1.00;;;;;;8326160;28;20267;-68
2023/01/18 15:43:12;;;;;;;49.30;29.30;;;1.30;1.00;;;;;;8329239;28;20193;-68
2023/01/18 15:47:22;;;;;;;52.07;30.27;;;1.30;1.00;;;;;;8328696;28;20186;-68
2023/01/18 15:51:51;;;;;;;49.30;28.53;;;1.30;20.70;;;;;;8328142;28;20300;-69
2023/01/18 15:55:52;;;;;;;45.27;25.03;;;1.30;23.50;;;;;;8326724;28;20190;-69
2023/01/18 15:59:53;;;;;;;52.17;26.97;;;1.30;37.20;;;;;;8341508;28;20793;-69
2023/01/18 16:04:02;;;;;;;44.77;25.43;;;1.20;99.90;;;;;;8334826;28;20186;-69
2023/01/18 16:08:21;;;;;;;43.73;25.63;;;1.20;99.90;;;;;;8335612;28;20190;-69
2023/01/18 16:12:34;;;;;;;47.60;26.13;;;1.20;99.90;;;;;;8333808;28;20222;-69
2023/01/18 16:16:40;;;;;;;47.33;27.23;;;1.20;99.90;;;;;;8340370;28;20189;-69
2023/01/18 16:20:41;;;;;;;52.93;26.30;;;1.20;99.90;;;;;;8334293;28;20366;-69
2023/01/18 16:24:48;;;;;;;40.53;23.53;;;1.20;99.90;;;;;;8335098;28;20186;-68
2023/01/18 16:28:50;;;;;;;42.63;24.17;;;1.20;99.90;;;;;;8336747;28;20280;-67
2023/01/18 16:32:51;;;;;;;45.53;24.37;;;1.10;99.90;;;;;;8334431;28;20190;-67
2023/01/18 16:36:53;;;;;;;43.23;21.97;;;1.10;99.90;;;;;;8336971;28;20260;-67
2023/01/18 16:40:57;;;;;;;41.73;24.23;;;1.10;99.90;;;;;;8339819;28;20197;-67
2023/01/18 16:44:58;;;;;;;44.50;24.30;;;1.10;99.90;;;;;;8333760;28;20266;-66
2023/01/18 16:48:59;;;;;;;53.83;30.07;;;1.10;99.90;;;;;;8336629;28;20537;-67
2023/01/18 16:53:00;;;;;;;49.20;29.30;;;1.10;1.00;;;;;;8338353;28;20221;-67
2023/01/18 16:57:00;;;;;;;55.57;28.90;;;1.10;1.00;;;;;;8337003;28;20186;-67
2023/01/18 17:01:12;;;;;;;47.93;26.80;;;1.10;1.00;;;;;;8342453;28;20289;-67
2023/01/18 17:05:14;;;;;;;49.97;26.67;;;1.10;1.00;;;;;;8329894;28;20190;-66
2023/01/18 17:09:24;;;;;;;45.20;24.77;;;1.10;1.00;;;;;;8333004;28;20207;-66
2023/01/18 17:13:26;;;;;;;44.23;23.73;;;1.10;1.00;;;;;;8328546;28;20183;-67
2023/01/18 17:17:26;;;;;;;41.93;23.33;;;1.10;1.00;;;;;;8330519;28;20186;-66
2023/01/18 17:21:27;;;;;;;35.63;21.00;;;1.10;13.60;;;;;;8335474;28;20182;-67
2023/01/18 17:25:28;;;;;;;36.73;21.13;;;1.10;72.30;;;;;;8335040;28;20299;-67
2023/01/18 17:29:29;;;;;;;41.70;23.53;;;1.10;99.90;;;;;;8334148;28;20209;-66
2023/01/18 17:33:31;;;;;;;62.10;30.03;;;1.20;99.90;;;;;;8335348;28;20213;-67
2023/01/18 17:37:32;;;;;;;55.90;28.30;;;1.20;99.90;;;;;;8325320;28;20202;-67
2023/01/18 17:41:35;;;;;;;59.00;29.00;;;1.20;99.90;;;;;;8338474;28;20285;-68
2023/01/18 17:45:35;;;;;;;53.80;28.77;;;1.20;99.90;;;;;;8324655;28;20186;-67
2023/01/18 17:49:36;;;;;;;45.13;25.60;;;1.20;99.90;;;;;;8332180;28;20221;-67
2023/01/18 17:53:39;;;;;;;38.20;23.07;;;1.20;99.90;;;;;;8336269;28;20344;-67
2023/01/18 17:57:40;;;;;;;41.87;22.60;;;1.20;99.90;;;;;;8328828;28;20616;-67
2023/01/18 18:01:41;;;;;;;44.27;23.33;;;1.20;99.90;;;;;;8333878;28;20260;-67
2023/01/18 18:05:42;;;;;;;39.07;21.97;;;1.20;99.90;;;;;;8329489;28;20232;-67
2023/01/18 18:09:43;;;;;;;44.60;24.47;;;1.20;99.90;;;;;;8330627;28;20245;-66
2023/01/18 18:13:44;;;;;;;45.53;24.93;;;1.20;99.90;;;;;;8328253;28;20178;-67
2023/01/18 18:17:44;;;;;;;45.53;25.17;;;1.20;99.90;;;;;;8334895;28;20197;-66
2023/01/18 18:21:45;;;;;;;45.27;24.70;;;1.20;99.90;;;;;;8327869;28;20479;-66
2023/01/18 18:25:47;;;;;;;46.23;24.50;;;1.20;99.90;;;;;;8331356;28;20198;-67
2023/01/18 18:29:47;;;;;;;46.77;25.97;;;1.20;99.90;;;;;;8333428;28;20210;-66
2023/01/18 18:33:49;;;;;;;49.57;26.93;;;1.20;99.90;;;;;;8332145;28;20236;-66
2023/01/18 18:37:50;;;;;;;46.50;25.77;;;1.20;99.90;;;;;;8335040;28;20202;-66
2023/01/18 18:41:52;;;;;;;52.17;28.10;;;1.20;99.90;;;;;;8328274;28;20182;-67
2023/01/18 18:45:53;;;;;;;49.23;26.77;;;1.20;99.90;;;;;;8329835;28;20221;-66
2023/01/18 18:49:54;;;;;;;47.30;26.87;;;1.20;99.90;;;;;;8327045;28;20415;-66
2023/01/18 18:53:55;;;;;;;56.47;29.03;;;1.10;90.70;;;;;;8331739;28;20228;-67
2023/01/18 18:57:56;;;;;;;48.50;28.93;;;1.10;99.40;;;;;;8332795;28;20190;-67
2023/01/18 19:01:58;;;;;;;54.77;27.87;;;1.10;99.90;;;;;;8330509;28;20268;-67
2023/01/18 19:05:59;;;;;;;46.97;26.63;;;1.10;99.90;;;;;;8331759;28;20197;-67
2023/01/18 19:10:00;;;;;;;49.00;26.57;;;1.10;99.90;;;;;;8332010;28;20236;-67
2023/01/18 19:14:01;;;;;;;51.83;28.50;;;1.10;99.90;;;;;;8329467;28;20186;-67
2023/01/18 19:18:02;;;;;;;55.37;29.27;;;1.10;99.90;;;;;;8333005;28;21344;-66
2023/01/18 19:22:03;;;;;;;49.53;27.57;;;1.10;99.90;;;;;;8327508;28;20194;-67
2023/01/18 19:26:04;;;;;;;44.60;24.57;;;1.10;99.90;;;;;;8324884;28;20282;-67
2023/01/18 19:30:11;;;;;;;48.43;26.77;;;1.00;99.90;;;;;;8325788;28;20212;-66
2023/01/18 19:34:14;;;;;;;48.17;25.30;;;1.00;99.90;;;;;;8328689;28;20214;-66
2023/01/18 19:38:15;;;;;;;48.53;26.63;;;1.00;99.90;;;;;;8331234;28;20198;-66
2023/01/18 19:42:16;;;;;;;52.90;26.47;;;1.00;99.90;;;;;;8333428;28;20221;-66
2023/01/18 19:46:18;;;;;;;46.20;25.63;;;1.10;99.90;;;;;;8327677;28;20185;-67
2023/01/18 19:50:19;;;;;;;45.80;24.07;;;1.10;99.90;;;;;;8328443;28;20209;-67
2023/01/18 19:54:21;;;;;;;49.60;25.90;;;1.10;99.90;;;;;;8326064;28;20300;-67
2023/01/18 19:58:21;;;;;;;42.80;23.27;;;1.10;99.90;;;;;;8334888;28;20559;-67
2023/01/18 20:02:22;;;;;;;47.00;24.03;;;1.10;99.90;;;;;;8325831;28;20182;-67
2023/01/18 20:06:23;;;;;;;44.57;24.50;;;1.10;99.90;;;;;;8331308;28;20190;-67
2023/01/18 20:10:25;;;;;;;45.90;23.63;;;1.10;99.90;;;;;;8328281;28;20205;-67
2023/01/18 20:14:26;;;;;;;46.13;24.83;;;1.00;99.90;;;;;;8331083;28;20185;-67
2023/01/18 20:18:31;;;;;;;48.43;25.00;;;1.00;99.90;;;;;;8335294;28;20288;-67
2023/01/18 20:22:33;;;;;;;45.97;25.03;;;0.90;99.90;;;;;;8329132;28;20190;-66
2023/01/18 20:26:34;;;;;;;39.80;22.83;;;0.90;99.90;;;;;;8335042;28;20193;-66
2023/01/18 20:30:35;;;;;;;40.90;21.17;;;0.80;99.90;;;;;;8332530;28;20206;-66
2023/01/18 20:34:36;;;;;;;44.03;21.57;;;0.80;99.90;;;;;;8329192;28;20221;-67
2023/01/18 20:38:37;;;;;;;40.63;21.10;;;0.90;99.90;;;;;;8327101;28;20205;-66
2023/01/18 20:42:38;;;;;;;44.00;21.37;;;0.90;99.90;;;;;;8331605;28;20183;-66
2023/01/18 20:46:39;;;;;;;42.30;21.27;;;1.00;99.90;;;;;;8331467;28;20191;-66
2023/01/18 20:50:40;;;;;;;34.10;18.90;;;1.00;99.90;;;;;;8335247;28;20207;-66
2023/01/18 20:54:41;;;;;;;37.10;19.60;;;1.00;99.90;;;;;;8333706;28;20182;-67
2023/01/18 20:58:42;;;;;;;36.27;21.77;;;1.00;99.90;;;;;;8332498;28;20170;-66
2023/01/18 21:02:43;;;;;;;34.00;20.60;;;1.10;99.90;;;;;;8334998;28;20186;-67
2023/01/18 21:06:45;;;;;;;35.77;18.67;;;1.10;99.90;;;;;;8347063;28;20287;-66
2023/01/18 21:10:46;;;;;;;37.20;19.60;;;1.10;99.90;;;;;;8332657;28;20221;-66
2023/01/18 21:14:47;;;;;;;37.17;20.13;;;1.10;99.90;;;;;;8337162;28;20178;-66
2023/01/18 21:18:48;;;;;;;37.93;21.67;;;1.10;99.90;;;;;;8333314;28;20174;-66
2023/01/18 21:22:49;;;;;;;40.60;20.07;;;1.10;99.90;;;;;;8339167;28;20189;-66
2023/01/18 21:26:50;;;;;;;40.90;22.03;;;1.10;99.90;;;;;;8336492;28;20179;-66